sensor_id;sensor_type;location;lat;lon;timestamp;temperature;humidity
4701;DHT22;8724;51.272;6.554;2023-03-22T00:00:00;14.40;99.90
4701;DHT22;8724;51.272;6.554;2023-03-22T00:02:31;14.40;99.90
4701;DHT22;8724;51.272;6.554;2023-03-22T00:05:00;14.40;99.90
4701;DHT22;8724;51.272;6.554;2023-03-22T00:07:28;14.40;99.90
4701;DHT22;8724;51.272;6.554;2023-03-22T00:09:59;14.40;99.90
4701;DHT22;8724;51.272;6.554;2023-03-22T00:12:27;14.40;99.90
4701;DHT22;8724;51.272;6.554;2023-03-22T00:14:55;14.40;99.90
4701;DHT22;8724;51.272;6.554;2023-03-22T00:17:26;14.40;99.90
4701;DHT22;8724;51.272;6.554;2023-03-22T00:19:54;14.40;99.90
4701;DHT22;8724;51.272;6.554;2023-03-22T00:22:23;14.40;99.90
4701;DHT22;8724;51.272;6.554;2023-03-22T00:24:52;14.40;99.90
4701;DHT22;8724;51.272;6.554;2023-03-22T00:27:22;14.40;99.90
4701;DHT22;8724;51.272;6.554;2023-03-22T00:29:50;14.40;99.90
4701;DHT22;8724;51.272;6.554;2023-03-22T00:32:19;14.40;99.90
4701;DHT22;8724;51.272;6.554;2023-03-22T00:34:49;14.40;99.90
4701;DHT22;8724;51.272;6.554;2023-03-22T00:37:17;14.40;99.90
4701;DHT22;8724;51.272;6.554;2023-03-22T00:39:45;14.40;99.90
4701;DHT22;8724;51.272;6.554;2023-03-22T00:42:14;14.40;99.90
4701;DHT22;8724;51.272;6.554;2023-03-22T00:44:44;14.30;99.90
4701;DHT22;8724;51.272;6.554;2023-03-22T00:47:12;14.30;99.90
4701;DHT22;8724;51.272;6.554;2023-03-22T00:49:41;14.30;99.90
4701;DHT22;8724;51.272;6.554;2023-03-22T00:52:09;14.30;99.90
4701;DHT22;8724;51.272;6.554;2023-03-22T00:54:38;14.30;99.90
4701;DHT22;8724;51.272;6.554;2023-03-22T00:57:06;14.30;99.90
4701;DHT22;8724;51.272;6.554;2023-03-22T00:59:35;14.30;99.90
4701;DHT22;8724;51.272;6.554;2023-03-22T01:02:06;14.30;99.90
4701;DHT22;8724;51.272;6.554;2023-03-22T01:04:34;14.30;99.90
4701;DHT22;8724;51.272;6.554;2023-03-22T01:07:03;14.30;99.90
4701;DHT22;8724;51.272;6.554;2023-03-22T01:09:35;14.30;99.90
4701;DHT22;8724;51.272;6.554;2023-03-22T01:12:04;14.30;99.90
4701;DHT22;8724;51.272;6.554;2023-03-22T01:14:32;14.30;99.90
4701;DHT22;8724;51.272;6.554;2023-03-22T01:17:01;14.30;99.90
4701;DHT22;8724;51.272;6.554;2023-03-22T01:19:31;14.30;99.90
4701;DHT22;8724;51.272;6.554;2023-03-22T01:22:00;14.30;99.90
4701;DHT22;8724;51.272;6.554;2023-03-22T01:24:29;14.30;99.90
4701;DHT22;8724;51.272;6.554;2023-03-22T01:26:57;14.50;99.90
4701;DHT22;8724;51.272;6.554;2023-03-22T01:29:30;14.30;99.90
4701;DHT22;8724;51.272;6.554;2023-03-22T01:31:58;14.20;99.90
4701;DHT22;8724;51.272;6.554;2023-03-22T01:34:27;14.20;99.90
4701;DHT22;8724;51.272;6.554;2023-03-22T01:36:57;14.20;99.90
4701;DHT22;8724;51.272;6.554;2023-03-22T01:39:26;14.20;99.90
4701;DHT22;8724;51.272;6.554;2023-03-22T01:41:57;14.20;99.90
4701;DHT22;8724;51.272;6.554;2023-03-22T01:44:29;14.20;99.90
4701;DHT22;8724;51.272;6.554;2023-03-22T01:46:59;14.20;99.90
4701;DHT22;8724;51.272;6.554;2023-03-22T01:49:31;14.20;99.90
4701;DHT22;8724;51.272;6.554;2023-03-22T01:52:05;14.20;99.90
4701;DHT22;8724;51.272;6.554;2023-03-22T01:54:54;14.10;99.90
4701;DHT22;8724;51.272;6.554;2023-03-22T01:57:46;14.10;99.90
4701;DHT22;8724;51.272;6.554;2023-03-22T02:00:21;14.10;99.90
4701;DHT22;8724;51.272;6.554;2023-03-22T02:03:14;14.10;99.90
4701;DHT22;8724;51.272;6.554;2023-03-22T02:05:47;14.10;99.90
4701;DHT22;8724;51.272;6.554;2023-03-22T02:08:17;14.10;99.90
4701;DHT22;8724;51.272;6.554;2023-03-22T02:10:58;14.10;99.90
4701;DHT22;8724;51.272;6.554;2023-03-22T02:14:00;14.10;99.90
4701;DHT22;8724;51.272;6.554;2023-03-22T02:17:13;14.10;99.90
4701;DHT22;8724;51.272;6.554;2023-03-22T02:20:28;14.10;99.90
4701;DHT22;8724;51.272;6.554;2023-03-22T02:23:31;14.10;99.90
4701;DHT22;8724;51.272;6.554;2023-03-22T02:26:29;14.10;99.90
4701;DHT22;8724;51.272;6.554;2023-03-22T02:29:04;14.00;99.90
4701;DHT22;8724;51.272;6.554;2023-03-22T02:31:51;14.00;99.90
4701;DHT22;8724;51.272;6.554;2023-03-22T02:34:40;14.00;99.90
4701;DHT22;8724;51.272;6.554;2023-03-22T02:37:36;14.00;99.90
4701;DHT22;8724;51.272;6.554;2023-03-22T02:40:14;14.00;99.90
4701;DHT22;8724;51.272;6.554;2023-03-22T02:42:53;14.00;99.90
4701;DHT22;8724;51.272;6.554;2023-03-22T02:45:29;13.90;99.90
4701;DHT22;8724;51.272;6.554;2023-03-22T02:48:04;13.90;99.90
4701;DHT22;8724;51.272;6.554;2023-03-22T02:50:38;13.90;99.90
4701;DHT22;8724;51.272;6.554;2023-03-22T02:53:12;13.90;99.90
4701;DHT22;8724;51.272;6.554;2023-03-22T02:55:50;13.90;99.90
4701;DHT22;8724;51.272;6.554;2023-03-22T02:58:22;13.90;99.90
4701;DHT22;8724;51.272;6.554;2023-03-22T03:00:56;13.90;99.90
4701;DHT22;8724;51.272;6.554;2023-03-22T03:03:27;13.90;99.90
4701;DHT22;8724;51.272;6.554;2023-03-22T03:05:59;13.90;99.90
4701;DHT22;8724;51.272;6.554;2023-03-22T03:08:30;13.90;99.90
4701;DHT22;8724;51.272;6.554;2023-03-22T03:11:01;13.90;99.90
4701;DHT22;8724;51.272;6.554;2023-03-22T03:13:30;13.90;99.90
4701;DHT22;8724;51.272;6.554;2023-03-22T03:16:00;13.90;99.90
4701;DHT22;8724;51.272;6.554;2023-03-22T03:18:38;14.10;99.90
4701;DHT22;8724;51.272;6.554;2023-03-22T03:21:22;13.90;99.90
4701;DHT22;8724;51.272;6.554;2023-03-22T03:23:55;13.90;99.90
4701;DHT22;8724;51.272;6.554;2023-03-22T03:26:34;13.80;99.90
4701;DHT22;8724;51.272;6.554;2023-03-22T03:29:08;13.80;99.90
4701;DHT22;8724;51.272;6.554;2023-03-22T03:31:42;13.80;99.90
4701;DHT22;8724;51.272;6.554;2023-03-22T03:34:18;13.80;99.90
4701;DHT22;8724;51.272;6.554;2023-03-22T03:36:51;13.80;99.90
4701;DHT22;8724;51.272;6.554;2023-03-22T03:39:22;13.80;99.90
4701;DHT22;8724;51.272;6.554;2023-03-22T03:41:53;13.80;99.90
4701;DHT22;8724;51.272;6.554;2023-03-22T03:44:24;13.80;99.90
4701;DHT22;8724;51.272;6.554;2023-03-22T03:46:53;13.80;99.90
4701;DHT22;8724;51.272;6.554;2023-03-22T03:49:22;13.80;99.90
4701;DHT22;8724;51.272;6.554;2023-03-22T03:51:52;13.80;99.90
4701;DHT22;8724;51.272;6.554;2023-03-22T03:54:22;13.80;99.90
4701;DHT22;8724;51.272;6.554;2023-03-22T03:56:53;13.80;99.90
4701;DHT22;8724;51.272;6.554;2023-03-22T03:59:22;13.80;99.90
4701;DHT22;8724;51.272;6.554;2023-03-22T04:01:52;13.80;99.90
4701;DHT22;8724;51.272;6.554;2023-03-22T04:04:26;13.80;99.90
4701;DHT22;8724;51.272;6.554;2023-03-22T04:07:04;13.80;99.90
4701;DHT22;8724;51.272;6.554;2023-03-22T04:09:37;13.80;99.90
4701;DHT22;8724;51.272;6.554;2023-03-22T04:12:16;13.80;99.90
4701;DHT22;8724;51.272;6.554;2023-03-22T04:15:05;13.80;99.90
4701;DHT22;8724;51.272;6.554;2023-03-22T04:17:34;13.80;99.90
4701;DHT22;8724;51.272;6.554;2023-03-22T04:20:05;13.70;99.90
4701;DHT22;8724;51.272;6.554;2023-03-22T04:22:37;13.80;99.90
4701;DHT22;8724;51.272;6.554;2023-03-22T04:25:07;13.70;99.90
4701;DHT22;8724;51.272;6.554;2023-03-22T04:27:44;13.70;99.90
4701;DHT22;8724;51.272;6.554;2023-03-22T04:30:17;13.70;99.90
4701;DHT22;8724;51.272;6.554;2023-03-22T04:32:59;13.70;99.90
4701;DHT22;8724;51.272;6.554;2023-03-22T04:36:02;13.70;99.90
4701;DHT22;8724;51.272;6.554;2023-03-22T04:38:38;13.80;99.90
4701;DHT22;8724;51.272;6.554;2023-03-22T04:41:13;13.70;99.90
4701;DHT22;8724;51.272;6.554;2023-03-22T04:43:48;13.70;99.90
4701;DHT22;8724;51.272;6.554;2023-03-22T04:46:17;13.70;99.90
4701;DHT22;8724;51.272;6.554;2023-03-22T04:48:57;13.70;99.90
4701;DHT22;8724;51.272;6.554;2023-03-22T04:51:26;13.80;99.90
4701;DHT22;8724;51.272;6.554;2023-03-22T04:54:16;13.70;99.90
4701;DHT22;8724;51.272;6.554;2023-03-22T04:56:45;13.70;99.90
4701;DHT22;8724;51.272;6.554;2023-03-22T04:59:17;13.70;99.90
4701;DHT22;8724;51.272;6.554;2023-03-22T05:01:48;13.70;99.90
4701;DHT22;8724;51.272;6.554;2023-03-22T05:04:23;13.70;99.90
4701;DHT22;8724;51.272;6.554;2023-03-22T05:07:00;13.70;99.90
4701;DHT22;8724;51.272;6.554;2023-03-22T05:09:41;13.70;99.90
4701;DHT22;8724;51.272;6.554;2023-03-22T05:12:11;13.70;99.90
4701;DHT22;8724;51.272;6.554;2023-03-22T05:14:50;13.70;99.90
4701;DHT22;8724;51.272;6.554;2023-03-22T05:17:23;13.70;99.90
4701;DHT22;8724;51.272;6.554;2023-03-22T05:19:54;13.70;99.90
4701;DHT22;8724;51.272;6.554;2023-03-22T05:22:23;13.70;99.90
4701;DHT22;8724;51.272;6.554;2023-03-22T05:24:53;13.70;99.90
4701;DHT22;8724;51.272;6.554;2023-03-22T05:27:25;13.70;99.90
4701;DHT22;8724;51.272;6.554;2023-03-22T05:30:21;13.70;99.90
4701;DHT22;8724;51.272;6.554;2023-03-22T05:32:57;13.60;99.90
4701;DHT22;8724;51.272;6.554;2023-03-22T05:35:34;13.70;99.90
4701;DHT22;8724;51.272;6.554;2023-03-22T05:38:03;13.60;99.90
4701;DHT22;8724;51.272;6.554;2023-03-22T05:40:35;13.70;99.90
4701;DHT22;8724;51.272;6.554;2023-03-22T05:43:04;13.60;99.90
4701;DHT22;8724;51.272;6.554;2023-03-22T05:45:36;13.70;99.90
4701;DHT22;8724;51.272;6.554;2023-03-22T05:48:24;13.70;99.90
4701;DHT22;8724;51.272;6.554;2023-03-22T05:50:52;13.70;99.90
4701;DHT22;8724;51.272;6.554;2023-03-22T05:53:21;13.70;99.90
4701;DHT22;8724;51.272;6.554;2023-03-22T05:55:55;13.60;99.90
4701;DHT22;8724;51.272;6.554;2023-03-22T05:58:30;13.70;99.90
4701;DHT22;8724;51.272;6.554;2023-03-22T06:01:06;13.70;99.90
4701;DHT22;8724;51.272;6.554;2023-03-22T06:03:47;13.70;99.90
4701;DHT22;8724;51.272;6.554;2023-03-22T06:06:38;13.70;99.90
4701;DHT22;8724;51.272;6.554;2023-03-22T06:09:14;13.70;99.90
4701;DHT22;8724;51.272;6.554;2023-03-22T06:11:48;13.70;99.90
4701;DHT22;8724;51.272;6.554;2023-03-22T06:14:17;13.70;99.90
4701;DHT22;8724;51.272;6.554;2023-03-22T06:17:13;13.70;99.90
4701;DHT22;8724;51.272;6.554;2023-03-22T06:19:43;13.70;99.90
4701;DHT22;8724;51.272;6.554;2023-03-22T06:22:13;13.70;99.90
4701;DHT22;8724;51.272;6.554;2023-03-22T06:24:43;13.70;99.90
4701;DHT22;8724;51.272;6.554;2023-03-22T06:27:17;13.70;99.90
4701;DHT22;8724;51.272;6.554;2023-03-22T06:29:46;13.70;99.90
4701;DHT22;8724;51.272;6.554;2023-03-22T06:32:23;13.70;99.90
4701;DHT22;8724;51.272;6.554;2023-03-22T06:34:54;13.70;99.90
4701;DHT22;8724;51.272;6.554;2023-03-22T06:37:24;13.70;99.90
4701;DHT22;8724;51.272;6.554;2023-03-22T06:39:53;13.70;99.90
4701;DHT22;8724;51.272;6.554;2023-03-22T06:42:24;13.70;99.90
4701;DHT22;8724;51.272;6.554;2023-03-22T06:45:04;13.70;99.90
4701;DHT22;8724;51.272;6.554;2023-03-22T06:47:38;13.70;99.90
4701;DHT22;8724;51.272;6.554;2023-03-22T06:50:19;13.70;99.90
4701;DHT22;8724;51.272;6.554;2023-03-22T06:53:01;13.70;99.90
4701;DHT22;8724;51.272;6.554;2023-03-22T06:55:30;13.80;99.90
4701;DHT22;8724;51.272;6.554;2023-03-22T06:58:09;13.70;99.90
4701;DHT22;8724;51.272;6.554;2023-03-22T07:00:38;13.70;99.90
4701;DHT22;8724;51.272;6.554;2023-03-22T07:03:09;13.80;99.90
4701;DHT22;8724;51.272;6.554;2023-03-22T07:05:43;13.70;99.90
4701;DHT22;8724;51.272;6.554;2023-03-22T07:08:12;13.80;99.90
4701;DHT22;8724;51.272;6.554;2023-03-22T07:10:48;13.80;99.90
4701;DHT22;8724;51.272;6.554;2023-03-22T07:13:21;13.80;99.90
4701;DHT22;8724;51.272;6.554;2023-03-22T07:15:54;13.80;99.90
4701;DHT22;8724;51.272;6.554;2023-03-22T07:18:35;13.80;99.90
4701;DHT22;8724;51.272;6.554;2023-03-22T07:21:04;13.80;99.90
4701;DHT22;8724;51.272;6.554;2023-03-22T07:23:35;13.80;99.90
4701;DHT22;8724;51.272;6.554;2023-03-22T07:26:08;13.80;99.90
4701;DHT22;8724;51.272;6.554;2023-03-22T07:28:43;13.80;99.90
4701;DHT22;8724;51.272;6.554;2023-03-22T07:31:14;13.80;99.90
4701;DHT22;8724;51.272;6.554;2023-03-22T07:34:04;13.80;99.90
4701;DHT22;8724;51.272;6.554;2023-03-22T07:36:42;13.80;99.90
4701;DHT22;8724;51.272;6.554;2023-03-22T07:39:11;13.80;99.90
4701;DHT22;8724;51.272;6.554;2023-03-22T07:41:43;13.80;99.90
4701;DHT22;8724;51.272;6.554;2023-03-22T07:44:24;13.80;99.90
4701;DHT22;8724;51.272;6.554;2023-03-22T07:47:08;13.80;99.90
4701;DHT22;8724;51.272;6.554;2023-03-22T07:50:00;13.80;99.90
4701;DHT22;8724;51.272;6.554;2023-03-22T07:52:31;13.80;99.90
4701;DHT22;8724;51.272;6.554;2023-03-22T07:54:59;13.80;99.90
4701;DHT22;8724;51.272;6.554;2023-03-22T07:57:28;13.80;99.90
4701;DHT22;8724;51.272;6.554;2023-03-22T07:59:59;13.80;99.90
4701;DHT22;8724;51.272;6.554;2023-03-22T08:02:41;13.80;99.90
4701;DHT22;8724;51.272;6.554;2023-03-22T08:05:25;13.80;99.90
4701;DHT22;8724;51.272;6.554;2023-03-22T08:07:59;13.80;99.90
4701;DHT22;8724;51.272;6.554;2023-03-22T08:10:27;13.80;99.90
4701;DHT22;8724;51.272;6.554;2023-03-22T08:12:58;13.80;99.90
4701;DHT22;8724;51.272;6.554;2023-03-22T08:15:26;13.80;99.90
4701;DHT22;8724;51.272;6.554;2023-03-22T08:17:56;13.80;99.90
4701;DHT22;8724;51.272;6.554;2023-03-22T08:20:33;13.80;99.90
4701;DHT22;8724;51.272;6.554;2023-03-22T08:23:07;13.80;99.90
4701;DHT22;8724;51.272;6.554;2023-03-22T08:25:43;13.80;99.90
4701;DHT22;8724;51.272;6.554;2023-03-22T08:28:12;13.80;99.90
4701;DHT22;8724;51.272;6.554;2023-03-22T08:30:42;13.80;99.90
4701;DHT22;8724;51.272;6.554;2023-03-22T08:33:11;13.70;99.90
4701;DHT22;8724;51.272;6.554;2023-03-22T08:35:42;13.80;99.90
4701;DHT22;8724;51.272;6.554;2023-03-22T08:38:13;13.80;99.90
4701;DHT22;8724;51.272;6.554;2023-03-22T08:40:46;13.80;99.90
4701;DHT22;8724;51.272;6.554;2023-03-22T08:43:19;13.80;99.90
4701;DHT22;8724;51.272;6.554;2023-03-22T08:45:47;13.80;99.90
4701;DHT22;8724;51.272;6.554;2023-03-22T08:48:18;13.80;99.90
4701;DHT22;8724;51.272;6.554;2023-03-22T08:51:08;13.80;99.90
4701;DHT22;8724;51.272;6.554;2023-03-22T08:54:10;13.80;99.90
4701;DHT22;8724;51.272;6.554;2023-03-22T08:57:09;13.80;99.90
4701;DHT22;8724;51.272;6.554;2023-03-22T09:00:00;13.80;99.90
4701;DHT22;8724;51.272;6.554;2023-03-22T09:02:46;13.90;99.90
4701;DHT22;8724;51.272;6.554;2023-03-22T09:05:15;13.90;99.90
4701;DHT22;8724;51.272;6.554;2023-03-22T09:07:45;13.90;99.90
4701;DHT22;8724;51.272;6.554;2023-03-22T09:10:23;13.90;99.90
4701;DHT22;8724;51.272;6.554;2023-03-22T09:12:52;13.90;99.90
4701;DHT22;8724;51.272;6.554;2023-03-22T09:15:21;13.90;99.90
4701;DHT22;8724;51.272;6.554;2023-03-22T09:18:05;13.90;99.90
4701;DHT22;8724;51.272;6.554;2023-03-22T09:20:33;13.90;99.90
4701;DHT22;8724;51.272;6.554;2023-03-22T09:23:05;13.90;99.90
4701;DHT22;8724;51.272;6.554;2023-03-22T09:25:34;13.90;99.90
4701;DHT22;8724;51.272;6.554;2023-03-22T09:28:03;14.00;99.90
4701;DHT22;8724;51.272;6.554;2023-03-22T09:30:32;13.90;99.90
4701;DHT22;8724;51.272;6.554;2023-03-22T09:33:00;13.90;99.90
4701;DHT22;8724;51.272;6.554;2023-03-22T09:35:30;13.90;99.90
4701;DHT22;8724;51.272;6.554;2023-03-22T09:38:05;13.90;99.90
4701;DHT22;8724;51.272;6.554;2023-03-22T09:40:34;14.00;99.90
4701;DHT22;8724;51.272;6.554;2023-03-22T09:43:07;13.90;99.90
4701;DHT22;8724;51.272;6.554;2023-03-22T09:45:40;13.90;99.90
4701;DHT22;8724;51.272;6.554;2023-03-22T09:48:13;13.90;99.90
4701;DHT22;8724;51.272;6.554;2023-03-22T09:50:47;13.90;99.90
4701;DHT22;8724;51.272;6.554;2023-03-22T09:53:18;13.90;99.90
4701;DHT22;8724;51.272;6.554;2023-03-22T09:55:51;13.90;99.90
4701;DHT22;8724;51.272;6.554;2023-03-22T09:58:26;14.00;99.90
4701;DHT22;8724;51.272;6.554;2023-03-22T10:00:59;14.00;99.90
4701;DHT22;8724;51.272;6.554;2023-03-22T10:03:55;14.00;99.90
4701;DHT22;8724;51.272;6.554;2023-03-22T10:06:27;14.00;99.90
4701;DHT22;8724;51.272;6.554;2023-03-22T10:09:04;14.00;99.90
4701;DHT22;8724;51.272;6.554;2023-03-22T10:11:41;14.00;99.90
4701;DHT22;8724;51.272;6.554;2023-03-22T10:14:28;14.00;99.90
4701;DHT22;8724;51.272;6.554;2023-03-22T10:17:00;14.00;99.90
4701;DHT22;8724;51.272;6.554;2023-03-22T10:19:34;14.00;99.90
4701;DHT22;8724;51.272;6.554;2023-03-22T10:22:05;14.10;99.90
4701;DHT22;8724;51.272;6.554;2023-03-22T10:24:37;14.00;99.90
4701;DHT22;8724;51.272;6.554;2023-03-22T10:27:13;14.10;99.90
4701;DHT22;8724;51.272;6.554;2023-03-22T10:29:46;14.10;99.90
4701;DHT22;8724;51.272;6.554;2023-03-22T10:32:18;14.10;99.90
4701;DHT22;8724;51.272;6.554;2023-03-22T10:34:47;14.10;99.90
4701;DHT22;8724;51.272;6.554;2023-03-22T10:37:19;14.10;99.90
4701;DHT22;8724;51.272;6.554;2023-03-22T10:39:52;14.10;99.90
4701;DHT22;8724;51.272;6.554;2023-03-22T10:42:24;14.10;99.90
4701;DHT22;8724;51.272;6.554;2023-03-22T10:44:57;14.10;99.90
4701;DHT22;8724;51.272;6.554;2023-03-22T10:47:32;14.10;99.90
4701;DHT22;8724;51.272;6.554;2023-03-22T10:50:04;14.10;99.90
4701;DHT22;8724;51.272;6.554;2023-03-22T10:52:40;14.10;99.90
4701;DHT22;8724;51.272;6.554;2023-03-22T10:55:13;14.10;99.90
4701;DHT22;8724;51.272;6.554;2023-03-22T10:57:48;14.10;99.90
4701;DHT22;8724;51.272;6.554;2023-03-22T11:00:20;14.10;99.90
4701;DHT22;8724;51.272;6.554;2023-03-22T11:02:52;14.10;99.90
4701;DHT22;8724;51.272;6.554;2023-03-22T11:05:23;14.10;99.90
4701;DHT22;8724;51.272;6.554;2023-03-22T11:07:53;14.10;99.90
4701;DHT22;8724;51.272;6.554;2023-03-22T11:10:25;14.10;99.90
4701;DHT22;8724;51.272;6.554;2023-03-22T11:13:09;14.10;99.90
4701;DHT22;8724;51.272;6.554;2023-03-22T11:15:40;14.10;99.90
4701;DHT22;8724;51.272;6.554;2023-03-22T11:18:13;14.10;99.90
4701;DHT22;8724;51.272;6.554;2023-03-22T11:20:52;14.10;99.90
4701;DHT22;8724;51.272;6.554;2023-03-22T11:23:21;14.10;99.90
4701;DHT22;8724;51.272;6.554;2023-03-22T11:25:55;14.10;99.90
4701;DHT22;8724;51.272;6.554;2023-03-22T11:28:27;14.20;99.90
4701;DHT22;8724;51.272;6.554;2023-03-22T11:31:03;14.20;99.90
4701;DHT22;8724;51.272;6.554;2023-03-22T11:33:32;14.20;99.90
4701;DHT22;8724;51.272;6.554;2023-03-22T11:36:03;14.20;99.90
4701;DHT22;8724;51.272;6.554;2023-03-22T11:38:35;14.20;99.90
4701;DHT22;8724;51.272;6.554;2023-03-22T11:41:07;14.20;99.90
4701;DHT22;8724;51.272;6.554;2023-03-22T11:43:38;14.20;99.90
4701;DHT22;8724;51.272;6.554;2023-03-22T11:46:08;14.20;99.90
4701;DHT22;8724;51.272;6.554;2023-03-22T11:48:40;14.20;99.90
4701;DHT22;8724;51.272;6.554;2023-03-22T11:51:11;14.20;99.90
4701;DHT22;8724;51.272;6.554;2023-03-22T11:53:42;14.20;99.90
4701;DHT22;8724;51.272;6.554;2023-03-22T11:56:16;14.30;99.90
4701;DHT22;8724;51.272;6.554;2023-03-22T11:58:55;14.30;99.90
4701;DHT22;8724;51.272;6.554;2023-03-22T12:01:39;14.30;99.90
4701;DHT22;8724;51.272;6.554;2023-03-22T12:04:14;14.30;99.90
4701;DHT22;8724;51.272;6.554;2023-03-22T12:06:43;14.30;99.90
4701;DHT22;8724;51.272;6.554;2023-03-22T12:09:23;14.30;99.90
4701;DHT22;8724;51.272;6.554;2023-03-22T12:11:55;14.30;99.90
4701;DHT22;8724;51.272;6.554;2023-03-22T12:14:27;14.30;99.90
4701;DHT22;8724;51.272;6.554;2023-03-22T12:17:00;14.30;99.90
4701;DHT22;8724;51.272;6.554;2023-03-22T12:19:47;14.30;99.90
4701;DHT22;8724;51.272;6.554;2023-03-22T12:22:19;14.30;99.90
4701;DHT22;8724;51.272;6.554;2023-03-22T12:24:48;14.30;99.90
4701;DHT22;8724;51.272;6.554;2023-03-22T12:27:21;14.40;99.90
4701;DHT22;8724;51.272;6.554;2023-03-22T12:29:53;14.30;99.90
4701;DHT22;8724;51.272;6.554;2023-03-22T12:32:26;14.40;99.90
4701;DHT22;8724;51.272;6.554;2023-03-22T12:34:56;14.30;99.90
4701;DHT22;8724;51.272;6.554;2023-03-22T12:37:45;14.30;99.90
4701;DHT22;8724;51.272;6.554;2023-03-22T12:40:20;14.40;99.90
4701;DHT22;8724;51.272;6.554;2023-03-22T12:42:58;14.40;99.90
4701;DHT22;8724;51.272;6.554;2023-03-22T12:45:29;14.30;99.90
4701;DHT22;8724;51.272;6.554;2023-03-22T12:48:04;14.40;99.90
4701;DHT22;8724;51.272;6.554;2023-03-22T12:50:37;14.40;99.90
4701;DHT22;8724;51.272;6.554;2023-03-22T12:53:12;14.30;99.90
4701;DHT22;8724;51.272;6.554;2023-03-22T12:55:42;14.40;99.90
4701;DHT22;8724;51.272;6.554;2023-03-22T12:58:17;14.40;99.90
4701;DHT22;8724;51.272;6.554;2023-03-22T13:00:50;14.40;99.90
4701;DHT22;8724;51.272;6.554;2023-03-22T13:03:25;14.40;99.90
4701;DHT22;8724;51.272;6.554;2023-03-22T13:06:00;14.40;99.90
4701;DHT22;8724;51.272;6.554;2023-03-22T13:11:36;14.40;99.90
4701;DHT22;8724;51.272;6.554;2023-03-22T13:14:06;14.40;99.90
4701;DHT22;8724;51.272;6.554;2023-03-22T13:16:47;14.40;99.90
4701;DHT22;8724;51.272;6.554;2023-03-22T13:19:26;14.40;99.90
4701;DHT22;8724;51.272;6.554;2023-03-22T13:22:16;14.40;99.90
4701;DHT22;8724;51.272;6.554;2023-03-22T13:24:59;14.40;99.90
4701;DHT22;8724;51.272;6.554;2023-03-22T13:27:37;14.40;99.90
4701;DHT22;8724;51.272;6.554;2023-03-22T13:30:14;14.40;99.90
4701;DHT22;8724;51.272;6.554;2023-03-22T13:32:47;14.40;99.90
4701;DHT22;8724;51.272;6.554;2023-03-22T13:35:24;14.40;99.90
4701;DHT22;8724;51.272;6.554;2023-03-22T13:38:00;14.40;99.90
4701;DHT22;8724;51.272;6.554;2023-03-22T13:40:34;14.40;99.90
4701;DHT22;8724;51.272;6.554;2023-03-22T13:43:12;14.40;99.90
4701;DHT22;8724;51.272;6.554;2023-03-22T13:49:27;14.40;99.90
4701;DHT22;8724;51.272;6.554;2023-03-22T13:52:00;14.50;99.90
4701;DHT22;8724;51.272;6.554;2023-03-22T13:54:43;14.50;99.90
4701;DHT22;8724;51.272;6.554;2023-03-22T13:57:32;14.50;99.90
4701;DHT22;8724;51.272;6.554;2023-03-22T14:00:15;14.50;99.90
4701;DHT22;8724;51.272;6.554;2023-03-22T14:02:48;14.50;99.90
4701;DHT22;8724;51.272;6.554;2023-03-22T14:05:20;14.50;99.90
4701;DHT22;8724;51.272;6.554;2023-03-22T14:07:51;14.50;99.90
4701;DHT22;8724;51.272;6.554;2023-03-22T14:10:24;14.50;99.90
4701;DHT22;8724;51.272;6.554;2023-03-22T14:12:57;14.60;99.90
4701;DHT22;8724;51.272;6.554;2023-03-22T14:15:30;14.50;99.90
4701;DHT22;8724;51.272;6.554;2023-03-22T14:18:02;14.60;99.90
4701;DHT22;8724;51.272;6.554;2023-03-22T14:20:35;14.60;99.90
4701;DHT22;8724;51.272;6.554;2023-03-22T14:23:06;14.60;99.90
4701;DHT22;8724;51.272;6.554;2023-03-22T14:25:35;14.50;99.90
4701;DHT22;8724;51.272;6.554;2023-03-22T14:28:03;14.60;99.90
4701;DHT22;8724;51.272;6.554;2023-03-22T14:30:35;14.60;99.90
4701;DHT22;8724;51.272;6.554;2023-03-22T14:33:06;14.60;99.90
4701;DHT22;8724;51.272;6.554;2023-03-22T14:35:41;14.60;99.90
4701;DHT22;8724;51.272;6.554;2023-03-22T14:38:14;14.60;99.90
4701;DHT22;8724;51.272;6.554;2023-03-22T14:40:42;14.60;99.90
4701;DHT22;8724;51.272;6.554;2023-03-22T14:43:14;14.60;99.90
4701;DHT22;8724;51.272;6.554;2023-03-22T14:45:48;14.60;99.90
4701;DHT22;8724;51.272;6.554;2023-03-22T14:48:18;14.60;99.90
4701;DHT22;8724;51.272;6.554;2023-03-22T14:50:51;14.60;99.90
4701;DHT22;8724;51.272;6.554;2023-03-22T14:53:25;14.60;99.90
4701;DHT22;8724;51.272;6.554;2023-03-22T14:55:53;14.60;99.90
4701;DHT22;8724;51.272;6.554;2023-03-22T14:58:27;14.60;99.90
4701;DHT22;8724;51.272;6.554;2023-03-22T15:00:59;14.60;99.90
4701;DHT22;8724;51.272;6.554;2023-03-22T15:03:27;14.60;99.90
4701;DHT22;8724;51.272;6.554;2023-03-22T15:05:58;14.60;99.90
4701;DHT22;8724;51.272;6.554;2023-03-22T15:08:30;14.60;99.90
4701;DHT22;8724;51.272;6.554;2023-03-22T15:10:59;14.60;99.90
4701;DHT22;8724;51.272;6.554;2023-03-22T15:13:32;14.60;99.90
4701;DHT22;8724;51.272;6.554;2023-03-22T15:16:01;14.60;99.90
4701;DHT22;8724;51.272;6.554;2023-03-22T15:18:30;14.60;99.90
4701;DHT22;8724;51.272;6.554;2023-03-22T15:21:01;14.60;99.90
4701;DHT22;8724;51.272;6.554;2023-03-22T15:23:34;14.60;99.90
4701;DHT22;8724;51.272;6.554;2023-03-22T15:26:07;14.60;99.90
4701;DHT22;8724;51.272;6.554;2023-03-22T15:28:41;14.60;99.90
4701;DHT22;8724;51.272;6.554;2023-03-22T15:31:22;14.60;99.90
4701;DHT22;8724;51.272;6.554;2023-03-22T15:33:51;14.60;99.90
4701;DHT22;8724;51.272;6.554;2023-03-22T15:36:21;14.60;99.90
4701;DHT22;8724;51.272;6.554;2023-03-22T15:38:49;14.70;99.90
4701;DHT22;8724;51.272;6.554;2023-03-22T15:41:23;14.70;99.90
4701;DHT22;8724;51.272;6.554;2023-03-22T15:43:59;14.70;99.90
4701;DHT22;8724;51.272;6.554;2023-03-22T15:46:30;14.70;99.90
4701;DHT22;8724;51.272;6.554;2023-03-22T15:49:16;14.70;99.90
4701;DHT22;8724;51.272;6.554;2023-03-22T15:51:45;14.70;99.90
4701;DHT22;8724;51.272;6.554;2023-03-22T15:54:15;14.40;99.90
4701;DHT22;8724;51.272;6.554;2023-03-22T15:56:46;14.70;99.90
4701;DHT22;8724;51.272;6.554;2023-03-22T15:59:22;14.70;99.90
4701;DHT22;8724;51.272;6.554;2023-03-22T16:01:54;14.70;99.90
4701;DHT22;8724;51.272;6.554;2023-03-22T16:04:23;14.70;99.90
4701;DHT22;8724;51.272;6.554;2023-03-22T16:06:52;14.70;99.90
4701;DHT22;8724;51.272;6.554;2023-03-22T16:09:19;14.70;99.90
4701;DHT22;8724;51.272;6.554;2023-03-22T16:11:46;14.70;99.90
4701;DHT22;8724;51.272;6.554;2023-03-22T16:14:14;14.70;99.90
4701;DHT22;8724;51.272;6.554;2023-03-22T16:16:43;14.70;99.90
4701;DHT22;8724;51.272;6.554;2023-03-22T16:19:11;14.50;99.90
4701;DHT22;8724;51.272;6.554;2023-03-22T16:21:40;14.80;99.90
4701;DHT22;8724;51.272;6.554;2023-03-22T16:24:11;14.80;99.90
4701;DHT22;8724;51.272;6.554;2023-03-22T16:26:38;14.80;99.90
4701;DHT22;8724;51.272;6.554;2023-03-22T16:29:06;14.80;99.90
4701;DHT22;8724;51.272;6.554;2023-03-22T16:31:33;14.80;99.90
4701;DHT22;8724;51.272;6.554;2023-03-22T16:34:02;14.80;99.90
4701;DHT22;8724;51.272;6.554;2023-03-22T16:36:29;14.80;99.90
4701;DHT22;8724;51.272;6.554;2023-03-22T16:38:57;14.80;99.90
4701;DHT22;8724;51.272;6.554;2023-03-22T16:41:27;14.80;99.90
4701;DHT22;8724;51.272;6.554;2023-03-22T16:43:56;14.80;99.90
4701;DHT22;8724;51.272;6.554;2023-03-22T16:46:25;14.80;99.90
4701;DHT22;8724;51.272;6.554;2023-03-22T16:48:56;14.80;99.90
4701;DHT22;8724;51.272;6.554;2023-03-22T16:51:24;14.80;99.90